createdAt,value
2019-05-16T00:02:28.467Z,6.80
2019-05-16T00:04:59.191Z,6.70
2019-05-16T00:07:28.808Z,6.60
2019-05-16T00:09:59.017Z,6.60
2019-05-16T00:12:29.282Z,6.60
2019-05-16T00:14:58.979Z,6.60
2019-05-16T00:17:28.603Z,6.60
2019-05-16T00:19:58.957Z,6.60
2019-05-16T00:22:28.869Z,6.60
2019-05-16T00:24:58.419Z,6.50
2019-05-16T00:27:28.195Z,6.40
2019-05-16T00:29:58.255Z,6.60
2019-05-16T00:32:28.204Z,6.50
2019-05-16T00:34:58.362Z,6.50
2019-05-16T00:37:28.663Z,6.40
2019-05-16T00:39:58.822Z,6.50
2019-05-16T00:42:28.733Z,6.30
2019-05-16T00:44:58.528Z,6.40
2019-05-16T00:47:28.530Z,6.40
2019-05-16T00:49:58.353Z,6.30
2019-05-16T00:52:28.842Z,6.20
2019-05-16T00:54:58.390Z,6.20
2019-05-16T00:57:29.838Z,6.10
2019-05-16T01:00:00.174Z,6.10
2019-05-16T01:02:29.945Z,6.10
2019-05-16T01:04:59.317Z,6.00
2019-05-16T01:07:28.861Z,6.00
2019-05-16T01:09:58.401Z,6.00
2019-05-16T01:12:28.402Z,6.00
2019-05-16T01:14:58.544Z,5.90
2019-05-16T01:17:28.472Z,5.90
2019-05-16T01:19:58.054Z,5.80
2019-05-16T01:22:28.988Z,5.70
2019-05-16T01:24:58.688Z,5.60
2019-05-16T01:27:28.114Z,5.60
2019-05-16T01:29:58.373Z,5.60
2019-05-16T01:32:29.217Z,5.50
2019-05-16T01:34:59.060Z,5.50
2019-05-16T01:37:28.448Z,5.50
2019-05-16T01:39:58.746Z,5.50
2019-05-16T01:42:28.463Z,5.60
2019-05-16T01:44:58.003Z,5.50
2019-05-16T01:47:28.814Z,5.50
2019-05-16T01:49:58.543Z,5.50
2019-05-16T01:52:29.086Z,5.40
2019-05-16T01:54:58.864Z,5.40
2019-05-16T01:57:28.702Z,5.30
2019-05-16T01:59:58.973Z,5.30
2019-05-16T02:02:29.024Z,5.30
2019-05-16T02:04:59.082Z,5.30
2019-05-16T02:07:28.802Z,5.30
2019-05-16T02:09:58.353Z,5.20
2019-05-16T02:12:27.866Z,5.20
2019-05-16T02:14:58.754Z,5.10
2019-05-16T02:17:29.025Z,5.20
2019-05-16T02:19:58.490Z,5.20
2019-05-16T02:22:28.531Z,5.10
2019-05-16T02:24:58.616Z,5.10
2019-05-16T02:27:28.707Z,5.00
2019-05-16T02:29:59.969Z,5.00
2019-05-16T02:32:31.257Z,5.00
2019-05-16T02:35:01.390Z,5.10
2019-05-16T02:37:34.829Z,4.90
2019-05-16T02:40:02.428Z,4.90
2019-05-16T02:42:31.830Z,5.00
2019-05-16T02:45:02.455Z,5.00
2019-05-16T02:47:35.091Z,5.00
2019-05-16T02:50:03.425Z,5.00
2019-05-16T02:52:32.824Z,5.00
2019-05-16T02:55:02.168Z,5.00
2019-05-16T02:57:31.937Z,5.00
2019-05-16T03:00:02.157Z,5.00
2019-05-16T03:02:31.917Z,5.00
2019-05-16T03:05:01.361Z,4.90
2019-05-16T03:07:41.308Z,4.90
2019-05-16T03:10:03.613Z,5.00
2019-05-16T03:12:34.177Z,5.00
2019-05-16T03:15:04.180Z,5.00
2019-05-16T03:17:36.091Z,4.90
2019-05-16T03:20:05.901Z,4.90
2019-05-16T03:22:35.312Z,5.00
2019-05-16T03:25:05.018Z,5.10
2019-05-16T03:27:34.420Z,5.00
2019-05-16T03:30:03.838Z,5.10
2019-05-16T03:32:34.302Z,5.10
2019-05-16T03:35:05.826Z,5.20
2019-05-16T03:37:49.956Z,5.20
2019-05-16T03:40:06.985Z,5.30
2019-05-16T03:42:36.391Z,5.30
2019-05-16T03:45:06.432Z,5.40
2019-05-16T03:47:35.773Z,5.50
2019-05-16T03:50:05.244Z,5.60
2019-05-16T03:52:38.451Z,5.70
2019-05-16T03:55:05.836Z,5.80
2019-05-16T03:57:35.231Z,5.80
2019-05-16T04:00:05.513Z,5.90
2019-05-16T04:02:34.847Z,5.90
2019-05-16T04:05:04.515Z,6.00
2019-05-16T04:07:33.847Z,6.10
2019-05-16T04:10:04.018Z,6.10
2019-05-16T04:12:33.435Z,6.30
2019-05-16T04:15:03.136Z,6.30
2019-05-16T04:17:32.499Z,6.40
2019-05-16T04:20:02.509Z,6.50
2019-05-16T04:22:32.416Z,6.60
2019-05-16T04:25:02.199Z,6.70
2019-05-16T04:27:31.878Z,6.90
2019-05-16T04:30:02.115Z,6.90
2019-05-16T04:32:32.102Z,7.00
2019-05-16T04:35:02.467Z,7.10
2019-05-16T04:37:32.237Z,7.10
2019-05-16T04:40:01.890Z,7.30
2019-05-16T04:42:31.760Z,7.40
2019-05-16T04:45:01.397Z,7.40
2019-05-16T04:47:31.868Z,7.50
2019-05-16T04:50:02.099Z,7.60
2019-05-16T04:52:31.815Z,7.70
2019-05-16T04:55:01.159Z,7.80
2019-05-16T04:57:31.366Z,7.90
2019-05-16T05:00:02.519Z,8.00
2019-05-16T05:02:32.247Z,8.10
2019-05-16T05:05:01.669Z,8.30
2019-05-16T05:07:31.514Z,8.30
2019-05-16T05:10:01.192Z,8.40
2019-05-16T05:12:31.514Z,8.50
2019-05-16T05:15:01.855Z,8.60
2019-05-16T05:17:31.263Z,8.70
2019-05-16T05:20:01.289Z,8.80
2019-05-16T05:22:30.947Z,8.90
2019-05-16T05:25:00.324Z,8.90
2019-05-16T05:27:30.314Z,9.00
2019-05-16T05:30:01.020Z,9.20
2019-05-16T05:32:31.289Z,9.30
2019-05-16T05:35:00.618Z,9.30
2019-05-16T05:37:29.995Z,9.40
2019-05-16T05:39:59.986Z,9.40
2019-05-16T05:42:30.532Z,9.50
2019-05-16T05:45:00.594Z,9.60
2019-05-16T05:47:30.716Z,9.70
2019-05-16T05:50:00.855Z,9.80
2019-05-16T05:52:30.554Z,9.90
2019-05-16T05:55:00.840Z,10.10
2019-05-16T05:57:30.365Z,10.20
2019-05-16T06:00:00.523Z,10.30
2019-05-16T06:02:31.014Z,10.40
2019-05-16T06:05:00.936Z,10.50
2019-05-16T06:07:30.260Z,10.60
2019-05-16T06:10:00.378Z,10.70
2019-05-16T06:12:30.596Z,10.90
2019-05-16T06:15:08.263Z,11.00
2019-05-16T06:17:31.475Z,11.00
2019-05-16T06:20:01.043Z,11.20
2019-05-16T06:22:30.369Z,11.30
2019-05-16T06:25:01.104Z,11.40
2019-05-16T06:27:30.659Z,11.50
2019-05-16T06:30:00.654Z,11.60
2019-05-16T06:32:30.531Z,11.70
2019-05-16T06:35:00.793Z,11.80
2019-05-16T06:37:30.998Z,12.00
2019-05-16T06:40:00.763Z,12.10
2019-05-16T06:42:30.474Z,12.20
2019-05-16T06:45:00.750Z,12.30
2019-05-16T06:47:30.707Z,12.50
2019-05-16T06:50:00.387Z,12.60
2019-05-16T06:52:30.262Z,12.60
2019-05-16T06:55:00.726Z,12.70
2019-05-16T06:57:30.421Z,12.80
2019-05-16T07:00:00.647Z,12.90
2019-05-16T07:02:34.212Z,13.00
2019-05-16T07:05:01.598Z,13.20
2019-05-16T07:07:30.956Z,13.20
2019-05-16T07:10:04.355Z,13.30
2019-05-16T07:12:33.832Z,13.50
2019-05-16T07:15:02.526Z,13.60
2019-05-16T07:17:31.856Z,13.70
2019-05-16T07:20:01.824Z,13.80
2019-05-16T07:22:31.345Z,13.80
2019-05-16T07:25:01.075Z,13.90
2019-05-16T07:27:30.919Z,13.90
2019-05-16T07:30:01.058Z,14.00
2019-05-16T07:32:31.265Z,14.10
2019-05-16T07:35:00.956Z,14.20
2019-05-16T07:37:31.574Z,14.40
2019-05-16T07:40:15.610Z,14.50
2019-05-16T07:42:32.163Z,14.60
2019-05-16T07:45:01.511Z,14.70
2019-05-16T07:47:31.086Z,14.70
2019-05-16T07:50:00.632Z,14.80
2019-05-16T07:52:35.443Z,15.00
2019-05-16T07:55:03.912Z,15.20
2019-05-16T07:57:32.074Z,15.40
2019-05-16T08:00:01.414Z,15.50
2019-05-16T08:02:31.292Z,15.60
2019-05-16T08:05:02.155Z,15.80
2019-05-16T08:07:33.616Z,15.80
2019-05-16T08:10:02.775Z,16.00
2019-05-16T08:12:33.060Z,16.10
2019-05-16T08:15:02.641Z,16.30
2019-05-16T08:17:32.056Z,16.40
2019-05-16T08:20:01.559Z,16.60
2019-05-16T08:22:30.997Z,16.50
2019-05-16T08:25:00.441Z,16.90
2019-05-16T08:32:31.885Z,17.50
2019-05-16T08:33:21.447Z,17.20
2019-05-16T08:35:01.520Z,17.50
2019-05-16T08:37:38.559Z,17.50
2019-05-16T08:40:02.140Z,17.70
2019-05-16T08:42:32.287Z,18.00
2019-05-16T08:45:02.293Z,17.70
2019-05-16T08:47:32.356Z,17.70
2019-05-16T08:50:02.092Z,18.00
2019-05-16T08:52:31.754Z,18.00
2019-05-16T08:55:03.536Z,18.20
2019-05-16T08:57:33.243Z,18.30
2019-05-16T09:00:03.577Z,18.60
2019-05-16T09:02:36.750Z,18.60
2019-05-16T09:05:05.942Z,19.00
2019-05-16T09:07:36.234Z,18.90
2019-05-16T09:10:34.528Z,17.10
2019-05-16T09:10:35.110Z,19.30
2019-05-16T09:12:37.355Z,19.20
2019-05-16T09:15:07.800Z,19.20
2019-05-16T09:17:38.350Z,19.20
2019-05-16T09:20:10.155Z,19.00
2019-05-16T09:22:39.487Z,19.30
2019-05-16T09:25:09.620Z,19.50
2019-05-16T09:27:38.955Z,19.60
2019-05-16T09:30:08.776Z,19.80
2019-05-16T09:32:42.394Z,20.00
2019-05-16T09:35:10.219Z,19.80
2019-05-16T09:37:39.637Z,20.20
2019-05-16T09:40:10.848Z,20.30
2019-05-16T09:42:40.270Z,20.20
2019-05-16T09:45:10.007Z,20.80
2019-05-16T09:47:39.383Z,20.80
2019-05-16T09:50:10.438Z,21.00
2019-05-16T09:52:39.789Z,21.10
2019-05-16T09:55:11.062Z,20.90
2019-05-16T09:57:40.459Z,20.60
2019-05-16T10:00:14.375Z,20.90
2019-05-16T10:02:43.814Z,20.80
2019-05-16T10:05:13.926Z,21.00
2019-05-16T10:07:46.756Z,21.30
2019-05-16T10:10:16.909Z,21.80
2019-05-16T10:12:45.990Z,21.70
2019-05-16T10:15:17.601Z,21.80
2019-05-16T10:17:47.668Z,21.70
2019-05-16T10:20:17.553Z,22.00
2019-05-16T10:22:50.629Z,22.50
2019-05-16T10:25:19.802Z,22.80
2019-05-16T10:27:49.464Z,22.70
2019-05-16T10:30:20.696Z,22.10
2019-05-16T10:32:50.018Z,22.10
2019-05-16T10:35:20.151Z,22.40
2019-05-16T10:37:49.487Z,22.70
2019-05-16T10:40:19.356Z,22.50
2019-05-16T10:42:48.757Z,22.50
2019-05-16T10:45:18.691Z,22.90
2019-05-16T10:47:48.269Z,23.10
2019-05-16T10:50:18.451Z,22.80
2019-05-16T10:53:06.978Z,23.20
2019-05-16T10:55:19.028Z,23.50
2019-05-16T10:57:48.486Z,23.70
2019-05-16T11:00:45.869Z,23.70
2019-05-16T11:02:49.990Z,24.10
2019-05-16T11:05:30.071Z,24.00
2019-05-16T11:07:53.066Z,23.70
2019-05-16T11:10:21.790Z,24.30
2019-05-16T11:12:55.375Z,24.10
2019-05-16T11:15:22.651Z,24.00
2019-05-16T11:17:51.978Z,24.60
2019-05-16T11:20:21.680Z,24.10
2019-05-16T11:22:51.287Z,24.20
2019-05-16T11:25:28.355Z,24.40
2019-05-16T11:27:51.694Z,24.40
2019-05-16T11:30:22.164Z,24.40
2019-05-16T11:32:51.571Z,24.90
2019-05-16T11:35:21.013Z,25.00
2019-05-16T11:37:50.416Z,25.00
2019-05-16T11:40:20.356Z,24.30
2019-05-16T11:43:05.500Z,24.50
2019-05-16T11:45:21.684Z,24.70
2019-05-16T11:47:51.276Z,24.70
2019-05-16T11:50:20.917Z,24.50
2019-05-16T11:52:50.247Z,24.40
2019-05-16T11:55:19.866Z,25.10
2019-05-16T11:57:49.277Z,25.20
2019-05-16T12:00:19.036Z,25.50
2019-05-16T12:02:48.355Z,25.10
2019-05-16T12:05:17.979Z,24.90
2019-05-16T12:07:48.374Z,25.50
2019-05-16T12:10:18.913Z,25.60
2019-05-16T12:12:48.323Z,25.80
2019-05-16T12:15:20.155Z,26.20
2019-05-16T12:18:00.995Z,26.00
2019-05-16T12:20:20.255Z,25.90
2019-05-16T12:22:49.616Z,25.90
2019-05-16T12:25:20.058Z,25.70
2019-05-16T12:27:49.649Z,25.60
2019-05-16T12:30:18.999Z,25.70
2019-05-16T12:32:48.405Z,25.70
2019-05-16T12:35:17.893Z,25.40
2019-05-16T12:37:48.054Z,26.10
2019-05-16T12:40:17.762Z,26.30
2019-05-16T12:42:47.329Z,26.20
2019-05-16T12:45:17.547Z,26.50
2019-05-16T12:47:47.458Z,26.40
2019-05-16T12:50:17.986Z,26.60
2019-05-16T12:52:47.705Z,26.50
2019-05-16T12:55:17.216Z,26.80
2019-05-16T12:57:48.963Z,26.50
2019-05-16T13:00:19.258Z,26.80
2019-05-16T13:02:48.752Z,27.00
2019-05-16T13:05:18.851Z,26.50
2019-05-16T13:07:48.190Z,27.00
2019-05-16T13:10:17.608Z,27.10
2019-05-16T13:12:46.954Z,27.10
2019-05-16T13:15:18.295Z,26.50
2019-05-16T13:17:47.603Z,26.90
2019-05-16T13:20:17.756Z,27.10
2019-05-16T13:22:47.451Z,27.00
2019-05-16T13:25:18.627Z,27.00
2019-05-16T13:27:47.987Z,27.10
2019-05-16T13:30:19.313Z,27.20
2019-05-16T13:32:48.638Z,27.20
2019-05-16T13:35:17.965Z,27.10
2019-05-16T13:37:47.859Z,27.10
2019-05-16T13:40:17.437Z,27.40
2019-05-16T13:42:48.073Z,26.30
2019-05-16T13:45:18.500Z,27.10
2019-05-16T13:47:49.076Z,26.80
2019-05-16T13:50:18.739Z,27.40
2019-05-16T13:52:48.329Z,27.80
2019-05-16T13:55:19.231Z,27.50
2019-05-16T13:57:48.580Z,27.00
2019-05-16T14:00:19.887Z,27.10
2019-05-16T14:02:49.226Z,27.70
2019-05-16T14:05:18.825Z,27.70
2019-05-16T14:07:48.281Z,27.90
2019-05-16T14:10:18.554Z,27.80
2019-05-16T14:12:50.154Z,27.30
2019-05-16T14:15:20.383Z,27.80
2019-05-16T14:17:49.978Z,27.50
2019-05-16T14:20:19.916Z,27.60
2019-05-16T14:22:49.327Z,27.40
2019-05-16T14:25:18.737Z,27.70
2019-05-16T14:27:48.130Z,28.10
2019-05-16T14:30:18.010Z,27.90
2019-05-16T14:32:50.747Z,27.80
2019-05-16T14:35:18.422Z,27.40
2019-05-16T14:37:47.762Z,26.80
2019-05-16T14:40:17.759Z,27.30
2019-05-16T14:42:48.108Z,27.00
2019-05-16T14:45:19.394Z,27.50
2019-05-16T14:47:49.021Z,27.40
2019-05-16T14:50:18.852Z,27.20
2019-05-16T14:52:48.175Z,27.10
2019-05-16T14:55:18.597Z,27.30
2019-05-16T14:57:48.210Z,27.30
2019-05-16T15:00:19.006Z,26.90
2019-05-16T15:02:48.523Z,26.90
2019-05-16T15:05:18.074Z,27.20
2019-05-16T15:07:48.300Z,26.30
2019-05-16T15:10:18.068Z,26.20
2019-05-16T15:12:47.395Z,26.00
2019-05-16T15:15:23.326Z,25.80
2019-05-16T15:17:51.911Z,26.10
2019-05-16T15:20:21.344Z,26.30
2019-05-16T15:22:50.883Z,25.70
2019-05-16T15:25:20.226Z,25.40
2019-05-16T15:27:49.581Z,25.50
2019-05-16T15:30:19.714Z,25.70
2019-05-16T15:32:49.095Z,25.40
2019-05-16T15:35:19.948Z,25.40
2019-05-16T15:37:49.323Z,24.90
2019-05-16T15:40:19.134Z,24.40
2019-05-16T15:42:48.467Z,24.30
2019-05-16T15:45:34.292Z,24.10
2019-05-16T15:47:49.471Z,23.80
2019-05-16T15:50:19.439Z,22.80
2019-05-16T15:52:48.818Z,22.90
2019-05-16T15:55:18.298Z,22.20
2019-05-16T15:57:47.787Z,21.90
2019-05-16T16:00:21.511Z,21.60
2019-05-16T16:02:50.930Z,21.40
2019-05-16T16:05:20.399Z,20.90
2019-05-16T16:07:49.793Z,20.80
2019-05-16T16:10:22.486Z,21.00
2019-05-16T16:12:51.838Z,20.70
2019-05-16T16:15:21.267Z,20.50
2019-05-16T16:17:50.705Z,20.40
2019-05-16T16:20:20.317Z,20.40
2019-05-16T16:22:49.723Z,20.20
2019-05-16T16:25:19.166Z,19.90
2019-05-16T16:27:48.567Z,19.80
2019-05-16T16:30:18.647Z,19.70
2019-05-16T16:32:48.408Z,19.60
2019-05-16T16:35:17.840Z,19.60
2019-05-16T16:37:47.204Z,19.50
2019-05-16T16:40:17.679Z,19.30
2019-05-16T16:42:47.582Z,19.30
2019-05-16T16:45:17.771Z,19.10
2019-05-16T16:47:47.592Z,18.90
2019-05-16T16:50:17.280Z,18.80
2019-05-16T16:52:47.478Z,18.90
2019-05-16T16:55:18.252Z,18.70
2019-05-16T16:57:47.580Z,18.70
2019-05-16T17:00:17.890Z,18.60
2019-05-16T17:03:01.671Z,18.40
2019-05-16T17:05:18.913Z,18.10
2019-05-16T17:07:48.771Z,18.00
2019-05-16T17:10:19.046Z,18.00
2019-05-16T17:12:48.447Z,17.90
2019-05-16T17:15:18.595Z,18.00
2019-05-16T17:17:47.922Z,18.10
2019-05-16T17:20:17.587Z,18.10
2019-05-16T17:22:46.913Z,18.10
2019-05-16T17:25:16.389Z,18.20
2019-05-16T17:27:46.874Z,18.30
2019-05-16T17:30:18.398Z,18.40
2019-05-16T17:32:47.738Z,18.80
2019-05-16T17:35:18.692Z,19.00
2019-05-16T17:37:48.712Z,18.60
2019-05-16T17:40:19.898Z,18.80
2019-05-16T17:42:49.229Z,18.60
2019-05-16T17:45:19.254Z,18.40
2019-05-16T17:47:48.582Z,18.20
2019-05-16T17:50:18.412Z,18.00
2019-05-16T17:52:47.960Z,18.20
2019-05-16T17:55:17.759Z,18.10
2019-05-16T17:57:47.094Z,18.30
2019-05-16T18:00:25.218Z,18.30
2019-05-16T18:02:49.090Z,18.40
2019-05-16T18:05:18.763Z,18.30
2019-05-16T18:07:48.150Z,18.40
2019-05-16T18:10:19.183Z,18.20
2019-05-16T18:12:48.530Z,18.00
2019-05-16T18:15:21.602Z,17.90
2019-05-16T18:17:51.275Z,17.70
2019-05-16T18:20:22.438Z,17.40
2019-05-16T18:22:52.575Z,17.40
2019-05-16T18:25:22.086Z,17.20
2019-05-16T18:27:51.710Z,16.90
2019-05-16T18:30:26.999Z,16.60
2019-05-16T18:32:56.165Z,16.30
2019-05-16T18:35:27.185Z,16.10
2019-05-16T18:37:57.015Z,15.90
2019-05-16T18:40:27.096Z,15.70
2019-05-16T18:42:57.054Z,15.40
2019-05-16T18:45:26.985Z,15.30
2019-05-16T18:47:56.435Z,15.30
2019-05-16T18:50:26.575Z,15.20
2019-05-16T18:52:57.117Z,15.00
2019-05-16T18:55:26.607Z,14.90
2019-05-16T18:57:57.574Z,14.70
2019-05-16T19:00:27.001Z,14.60
2019-05-16T19:02:56.411Z,14.60
2019-05-16T19:05:27.394Z,14.50
2019-05-16T19:07:56.758Z,14.40
2019-05-16T19:10:26.944Z,14.40
2019-05-16T19:12:56.475Z,14.30
2019-05-16T19:15:27.455Z,14.10
2019-05-16T19:17:58.680Z,14.00
2019-05-16T19:20:27.930Z,14.00
2019-05-16T19:22:59.064Z,13.90
2019-05-16T19:25:28.551Z,13.80
2019-05-16T19:27:57.869Z,13.70
2019-05-16T19:30:27.304Z,13.60
2019-05-16T19:32:57.480Z,13.50
2019-05-16T19:35:27.464Z,13.30
2019-05-16T19:37:57.030Z,13.30
2019-05-16T19:40:26.367Z,13.20
2019-05-16T19:42:56.593Z,13.10
2019-05-16T19:45:26.493Z,12.90
2019-05-16T19:47:57.806Z,12.80
2019-05-16T19:50:27.089Z,12.60
2019-05-16T19:52:56.827Z,12.60
2019-05-16T19:55:27.071Z,12.40
2019-05-16T19:57:57.232Z,12.40
2019-05-16T20:00:27.323Z,12.30
2019-05-16T20:02:57.019Z,12.20
2019-05-16T20:05:26.774Z,12.00
2019-05-16T20:07:56.960Z,12.00
2019-05-16T20:10:27.066Z,11.80
2019-05-16T20:12:56.902Z,11.80
2019-05-16T20:15:26.990Z,11.80
2019-05-16T20:17:58.634Z,11.70
2019-05-16T20:20:27.953Z,11.60
2019-05-16T20:22:57.289Z,11.60
2019-05-16T20:25:26.875Z,11.60
2019-05-16T20:27:56.480Z,11.40
2019-05-16T20:30:26.372Z,11.50
2019-05-16T20:32:55.838Z,11.50
2019-05-16T20:35:26.704Z,11.50
2019-05-16T20:37:56.471Z,11.40
2019-05-16T20:40:26.576Z,11.30
2019-05-16T20:42:56.401Z,11.20
2019-05-16T20:45:27.273Z,11.10
2019-05-16T20:48:07.933Z,11.10
2019-05-16T20:50:27.671Z,11.00
2019-05-16T20:52:57.420Z,10.90
2019-05-16T20:55:27.059Z,11.00
2019-05-16T20:57:57.476Z,10.90
2019-05-16T21:00:27.343Z,10.70
2019-05-16T21:02:57.481Z,10.70
2019-05-16T21:05:26.936Z,10.60
2019-05-16T21:07:57.108Z,10.50
2019-05-16T21:10:27.470Z,10.40
2019-05-16T21:12:57.443Z,10.40
2019-05-16T21:15:26.922Z,10.30
2019-05-16T21:17:56.777Z,10.30
2019-05-16T21:20:29.586Z,10.20
2019-05-16T21:22:57.349Z,10.20
2019-05-16T21:25:26.671Z,10.20
2019-05-16T21:27:57.329Z,10.20
2019-05-16T21:30:27.478Z,10.20
2019-05-16T21:32:57.524Z,10.10
2019-05-16T21:35:27.167Z,9.90
2019-05-16T21:37:57.083Z,9.90
2019-05-16T21:40:26.664Z,9.90
2019-05-16T21:42:58.627Z,9.80
2019-05-16T21:45:28.730Z,9.70
2019-05-16T21:47:58.224Z,9.50
2019-05-16T21:50:27.709Z,9.60
2019-05-16T21:52:57.627Z,9.50
2019-05-16T21:55:29.948Z,9.50
2019-05-16T21:57:58.022Z,9.50
2019-05-16T22:00:37.511Z,9.50
2019-05-16T22:03:06.974Z,9.50
2019-05-16T22:05:37.043Z,9.40
2019-05-16T22:08:07.469Z,9.20
2019-05-16T22:10:37.490Z,9.10
2019-05-16T22:13:07.793Z,9.20
2019-05-16T22:15:37.497Z,9.10
2019-05-16T22:18:07.372Z,9.00
2019-05-16T22:20:36.834Z,8.90
2019-05-16T22:23:07.129Z,8.90
2019-05-16T22:25:36.754Z,8.90
2019-05-16T22:28:07.198Z,8.80
2019-05-16T22:30:36.780Z,8.70
2019-05-16T22:33:08.980Z,8.70
2019-05-16T22:35:37.630Z,8.60
2019-05-16T22:38:07.502Z,8.60
2019-05-16T22:40:37.453Z,8.50
2019-05-16T22:43:10.163Z,8.60
2019-05-16T22:45:38.119Z,8.40
2019-05-16T22:48:07.662Z,8.40
2019-05-16T22:50:37.065Z,8.40
2019-05-16T22:53:06.633Z,8.30
2019-05-16T22:55:37.191Z,8.20
2019-05-16T22:58:07.452Z,8.30
2019-05-16T23:00:40.660Z,8.30
2019-05-16T23:03:07.979Z,8.20
2019-05-16T23:05:37.323Z,8.20
2019-05-16T23:08:09.806Z,8.20
2019-05-16T23:10:37.801Z,8.20
2019-05-16T23:13:07.531Z,8.00
2019-05-16T23:15:37.131Z,8.00
2019-05-16T23:18:07.021Z,7.90
2019-05-16T23:20:36.926Z,7.90
2019-05-16T23:23:07.128Z,7.80
2019-05-16T23:25:37.292Z,7.80
2019-05-16T23:28:07.851Z,7.70
2019-05-16T23:30:37.369Z,7.60
2019-05-16T23:33:07.414Z,7.50
2019-05-16T23:35:37.675Z,7.60
2019-05-16T23:38:18.595Z,7.50
2019-05-16T23:40:38.599Z,7.40
2019-05-16T23:43:08.008Z,7.50
2019-05-16T23:45:37.765Z,7.50
2019-05-16T23:48:10.298Z,7.50
2019-05-16T23:50:38.875Z,7.50
2019-05-16T23:53:08.203Z,7.50
2019-05-16T23:55:37.526Z,7.50
2019-05-16T23:58:07.249Z,7.60
